• Join FlightAware (Why Join?)
  • Login
  • US Flag 
02:28AM EDT


 

Airport Tracker/Info


-or-


 

Live Flight TrackerFlight Track Log ✈ CTL13 ✈ 10-May-2013 ✈ KEYE - KMDW

Flight Track Log - Related Links

Times and Time Zones

All times are in EDT time to prevent confusion due to time zone crossing. See the CTL13 flight status page for this flight to view local times or setup timezone preferences in your user account.

Time Position Orientation Groundspeed Altitude Reporting Facility
EDT Latitude Longitude Course Direction KTS MPH feet Rate Location/Type
09:12PM 39.8667 -86.2833 360° North 126 145 1,700  Level Indianapolis TRACON
09:14PM 39.9119 -86.2889 355° North 119 137 3,400 900 Climbing Indianapolis Center
09:15PM 39.9456 -86.3164 328° Northwest 118 136 4,300 660 Climbing Indianapolis Center
09:16PM 39.9747 -86.3386 330° Northwest 120 138 4,800 480 Climbing Indianapolis Center
09:17PM 40.0069 -86.3625 330° Northwest 126 145 5,300 480 Climbing Indianapolis Center
09:18PM 40.0400 -86.3889 329° Northwest 133 153 5,800 300 Climbing Indianapolis Center
09:19PM 40.0742 -86.4158 329° Northwest 139 160 6,000 60 Climbing Indianapolis Center
09:20PM 40.1100 -86.4433 330° Northwest 144 166 6,000  Level Indianapolis Center
09:20PM 40.1408 -86.4658 331° Northwest 149 171 6,000  Level Chicago Center
09:22PM 40.1775 -86.4939 330° Northwest 152 175 6,000  Level Chicago Center
09:23PM 40.2133 -86.5206 330° Northwest 151 174 6,000 -120 Level Chicago Center
09:23PM 40.2294 -86.5372 322° Northwest 150 173 5,900  Descending Chicago Center
09:24PM 40.2481 -86.5483 336° Northwest 149 171 6,000  Climbing Chicago Center
09:24PM 40.2661 -86.5614 331° Northwest 150 173 5,900 -120 Descending Chicago Center
09:25PM 40.2847 -86.5736 333° Northwest 149 171 5,900 60 Level Chicago Center
09:25PM 40.3028 -86.5908 324° Northwest 148 170 6,000 60 Climbing Chicago Center
09:26PM 40.3183 -86.6047 326° Northwest 148 170 6,000  Level Chicago Center
09:26PM 40.3350 -86.6200 325° Northwest 146 168 6,000 -120 Level Chicago Center
09:27PM 40.3536 -86.6336 331° Northwest 150 173 5,900  Descending Chicago Center
09:27PM 40.3717 -86.6497 326° Northwest 149 171 6,000 60 Climbing Chicago Center
09:28PM 40.3953 -86.6664 332° Northwest 146 168 6,000  Level Chicago Center
09:28PM 40.4061 -86.6764 325° Northwest 148 170 6,000  Level Chicago Center
09:29PM 40.4306 -86.6950 330° Northwest 149 171 6,000  Level Chicago Center
09:29PM 40.4425 -86.7058 325° Northwest 147 169 6,000  Level Chicago Center
09:30PM 40.4650 -86.7222 331° Northwest 147 169 6,000  Level Chicago Center
09:30PM 40.4769 -86.7328 326° Northwest 147 169 6,000  Level Chicago Center
09:31PM 40.5008 -86.7503 331° Northwest 150 173 6,000  Level Chicago Center
09:31PM 40.5136 -86.7625 324° Northwest 148 170 6,000  Level Chicago Center
09:32PM 40.5439 -86.7864 329° Northwest 148 170 6,000  Level Chicago Center
09:33PM 40.5706 -86.8058 331° Northwest 150 173 6,000  Level Chicago Center
09:34PM 40.6136 -86.8389 330° Northwest 150 173 6,000  Level Chicago Center
09:35PM 40.6478 -86.8672 328° Northwest 145 167 6,000  Level Chicago Center
09:36PM 40.6842 -86.8947 330° Northwest 149 171 6,000  Level Chicago Center
09:37PM 40.7161 -86.9197 329° Northwest 148 170 6,000  Level Chicago Center
09:38PM 40.7575 -86.9533 328° Northwest 147 169 6,000 -60 Level Chicago Center
09:39PM 40.7908 -86.9831 326° Northwest 144 166 5,900 -60 Descending Chicago Center
09:40PM 40.8253 -87.0117 328° Northwest 147 169 5,900  Level Chicago Center
09:41PM 40.8600 -87.0386 330° Northwest 145 167 5,900  Level Chicago Center
09:42PM 40.8944 -87.0675 328° Northwest 147 169 5,900  Level Chicago Center
09:43PM 40.9272 -87.0964 326° Northwest 143 165 5,900  Level Chicago Center
09:44PM 40.9622 -87.1247 329° Northwest 145 167 6,000  Climbing Chicago Center
09:45PM 41.0039 -87.1589 328° Northwest 148 170 5,900  Descending Chicago Center
09:46PM 41.0411 -87.1864 331° Northwest 151 174 6,000  Climbing Chicago Center
09:47PM 41.0775 -87.2139 330° Northwest 151 174 6,000 -60 Level Chicago Center
09:48PM 41.1125 -87.2442 327° Northwest 152 175 5,900 -60 Descending Chicago Center
09:49PM 41.1464 -87.2756 325° Northwest 151 174 5,900 -300 Level Chicago Center
09:50PM 41.1842 -87.3061 329° Northwest 154 177 5,400 -600 Descending Chicago Center
09:51PM 41.2231 -87.3392 327° Northwest 160 184 4,700 -660 Descending Chicago Center
09:52PM 41.2708 -87.3769 329° Northwest 164 189 4,100 -420 Descending Chicago Center
09:53PM 41.3092 -87.4069 330° Northwest 164 189 3,900 -60 Descending Chicago Center
09:54PM 41.3436 -87.4347 329° Northwest 157 181 4,000  Climbing Chicago Center
09:55PM 41.3817 -87.4550 338° Northwest 151 174 3,900 -60 Descending Chicago Center
09:56PM 41.4183 -87.4769 336° Northwest 148 170 3,900  Level Chicago Center
09:57PM 41.4586 -87.4908 346° North 148 170 3,900  Level Chicago Center
09:58PM 41.5053 -87.5044 348° North 147 169 3,900  Level Chicago Center
09:59PM 41.5458 -87.5167 347° North 147 169 3,900  Level Chicago Center
10:01PM 41.5861 -87.5308 345° North 149 171 3,900  Level Chicago Center
10:02PM 41.6253 -87.5425 347° North 148 170 3,900  Level Chicago Center
10:03PM 41.6581 -87.5769 322° Northwest 154 177 3,900 -420 Level Chicago Center
10:04PM 41.6889 -87.6175 316° Northwest 155 178 3,100 -840 Descending Chicago Center
10:05PM 41.7333 -87.6667 320° Northwest 154 177 2,200 -840 Descending Chicago TRACON
10:06PM 41.7500 -87.7167 294° West 152 175 1,500 -720 Descending Chicago TRACON
10:09PM 41.7833 -87.7500 334° Northwest  Level FlightAware Approximate